sensor_id;sensor_type;location;lat;lon;timestamp;temperature;humidity
1956;DHT22;978;48.314;11.562;2022-12-24T00:00:21;20.30;68.10
1956;DHT22;978;48.314;11.562;2022-12-24T00:02:49;20.30;68.20
1956;DHT22;978;48.314;11.562;2022-12-24T00:05:16;20.30;68.20
1956;DHT22;978;48.314;11.562;2022-12-24T00:07:44;20.30;68.10
1956;DHT22;978;48.314;11.562;2022-12-24T00:10:11;20.30;68.10
1956;DHT22;978;48.314;11.562;2022-12-24T00:12:39;20.30;68.10
1956;DHT22;978;48.314;11.562;2022-12-24T00:15:10;20.30;68.10
1956;DHT22;978;48.314;11.562;2022-12-24T00:17:40;20.30;68.10
1956;DHT22;978;48.314;11.562;2022-12-24T00:20:11;20.30;68.10
1956;DHT22;978;48.314;11.562;2022-12-24T00:22:39;20.30;68.20
1956;DHT22;978;48.314;11.562;2022-12-24T00:25:09;20.30;68.10
1956;DHT22;978;48.314;11.562;2022-12-24T00:27:36;20.30;68.30
1956;DHT22;978;48.314;11.562;2022-12-24T00:30:08;20.30;68.10
1956;DHT22;978;48.314;11.562;2022-12-24T00:32:35;20.30;68.10
1956;DHT22;978;48.314;11.562;2022-12-24T00:35:02;20.30;68.10
1956;DHT22;978;48.314;11.562;2022-12-24T00:37:29;20.30;68.10
1956;DHT22;978;48.314;11.562;2022-12-24T00:39:55;20.30;68.10
1956;DHT22;978;48.314;11.562;2022-12-24T00:42:22;20.30;68.10
1956;DHT22;978;48.314;11.562;2022-12-24T00:44:49;20.30;68.10
1956;DHT22;978;48.314;11.562;2022-12-24T00:47:19;20.30;68.00
1956;DHT22;978;48.314;11.562;2022-12-24T00:49:47;20.30;68.00
1956;DHT22;978;48.314;11.562;2022-12-24T00:52:15;20.30;68.10
1956;DHT22;978;48.314;11.562;2022-12-24T00:54:43;20.30;68.00
1956;DHT22;978;48.314;11.562;2022-12-24T00:57:10;20.30;68.10
1956;DHT22;978;48.314;11.562;2022-12-24T00:59:37;20.30;68.10
1956;DHT22;978;48.314;11.562;2022-12-24T01:02:03;20.30;68.10
1956;DHT22;978;48.314;11.562;2022-12-24T01:04:33;20.30;68.10
1956;DHT22;978;48.314;11.562;2022-12-24T01:07:16;20.30;68.10
1956;DHT22;978;48.314;11.562;2022-12-24T01:09:43;20.30;68.10
1956;DHT22;978;48.314;11.562;2022-12-24T01:12:10;20.30;68.10
1956;DHT22;978;48.314;11.562;2022-12-24T01:14:37;20.30;68.00
1956;DHT22;978;48.314;11.562;2022-12-24T01:17:04;20.30;68.10
1956;DHT22;978;48.314;11.562;2022-12-24T01:19:33;20.30;68.10
1956;DHT22;978;48.314;11.562;2022-12-24T01:22:01;20.30;68.10
1956;DHT22;978;48.314;11.562;2022-12-24T01:24:32;20.30;68.10
1956;DHT22;978;48.314;11.562;2022-12-24T01:27:00;20.30;68.10
1956;DHT22;978;48.314;11.562;2022-12-24T01:29:28;20.30;68.10
1956;DHT22;978;48.314;11.562;2022-12-24T01:31:57;20.30;68.10
1956;DHT22;978;48.314;11.562;2022-12-24T01:34:27;20.30;68.10
1956;DHT22;978;48.314;11.562;2022-12-24T01:36:57;20.30;68.10
1956;DHT22;978;48.314;11.562;2022-12-24T01:39:25;20.30;68.00
1956;DHT22;978;48.314;11.562;2022-12-24T01:41:52;20.30;68.00
1956;DHT22;978;48.314;11.562;2022-12-24T01:44:39;20.30;68.10
1956;DHT22;978;48.314;11.562;2022-12-24T01:47:09;20.30;68.00
1956;DHT22;978;48.314;11.562;2022-12-24T01:49:39;20.30;68.00
1956;DHT22;978;48.314;11.562;2022-12-24T01:52:11;20.30;68.00
1956;DHT22;978;48.314;11.562;2022-12-24T01:54:43;20.30;68.00
1956;DHT22;978;48.314;11.562;2022-12-24T01:57:15;20.30;68.00
1956;DHT22;978;48.314;11.562;2022-12-24T01:59:44;20.30;68.00
1956;DHT22;978;48.314;11.562;2022-12-24T02:02:12;20.30;68.00
1956;DHT22;978;48.314;11.562;2022-12-24T02:04:43;20.30;68.00
1956;DHT22;978;48.314;11.562;2022-12-24T02:07:13;20.30;68.10
1956;DHT22;978;48.314;11.562;2022-12-24T02:09:40;20.30;68.00
1956;DHT22;978;48.314;11.562;2022-12-24T02:12:07;20.30;68.00
1956;DHT22;978;48.314;11.562;2022-12-24T02:14:34;20.30;68.00
1956;DHT22;978;48.314;11.562;2022-12-24T02:17:12;20.30;68.00
1956;DHT22;978;48.314;11.562;2022-12-24T02:20:07;20.30;67.90
1956;DHT22;978;48.314;11.562;2022-12-24T02:23:07;20.30;68.00
1956;DHT22;978;48.314;11.562;2022-12-24T02:25:48;20.30;68.00
1956;DHT22;978;48.314;11.562;2022-12-24T02:28:35;20.30;67.90
1956;DHT22;978;48.314;11.562;2022-12-24T02:31:12;20.30;68.00
1956;DHT22;978;48.314;11.562;2022-12-24T02:33:44;20.30;67.90
1956;DHT22;978;48.314;11.562;2022-12-24T02:36:17;20.30;67.90
1956;DHT22;978;48.314;11.562;2022-12-24T02:38:49;20.30;67.90
1956;DHT22;978;48.314;11.562;2022-12-24T02:41:20;20.30;67.90
1956;DHT22;978;48.314;11.562;2022-12-24T02:43:50;20.30;67.90
1956;DHT22;978;48.314;11.562;2022-12-24T02:46:21;20.30;67.90
1956;DHT22;978;48.314;11.562;2022-12-24T02:48:49;20.30;67.90
1956;DHT22;978;48.314;11.562;2022-12-24T02:51:21;20.30;67.90
1956;DHT22;978;48.314;11.562;2022-12-24T02:53:48;20.30;67.90
1956;DHT22;978;48.314;11.562;2022-12-24T02:56:26;20.30;67.90
1956;DHT22;978;48.314;11.562;2022-12-24T02:59:25;20.30;67.90
1956;DHT22;978;48.314;11.562;2022-12-24T03:02:04;20.30;67.80
1956;DHT22;978;48.314;11.562;2022-12-24T03:04:44;20.30;67.90
1956;DHT22;978;48.314;11.562;2022-12-24T03:07:17;20.30;67.90
1956;DHT22;978;48.314;11.562;2022-12-24T03:10:17;20.30;67.90
1956;DHT22;978;48.314;11.562;2022-12-24T03:12:48;20.30;67.80
1956;DHT22;978;48.314;11.562;2022-12-24T03:15:19;20.30;67.80
1956;DHT22;978;48.314;11.562;2022-12-24T03:17:49;20.30;67.80
1956;DHT22;978;48.314;11.562;2022-12-24T03:20:20;20.30;67.80
1956;DHT22;978;48.314;11.562;2022-12-24T03:22:48;20.30;67.80
1956;DHT22;978;48.314;11.562;2022-12-24T03:25:15;20.30;67.80
1956;DHT22;978;48.314;11.562;2022-12-24T03:27:43;20.30;67.80
1956;DHT22;978;48.314;11.562;2022-12-24T03:30:12;20.30;67.80
1956;DHT22;978;48.314;11.562;2022-12-24T03:32:40;20.30;67.80
1956;DHT22;978;48.314;11.562;2022-12-24T03:35:13;20.30;67.80
1956;DHT22;978;48.314;11.562;2022-12-24T03:37:42;20.30;67.80
1956;DHT22;978;48.314;11.562;2022-12-24T03:40:09;20.30;67.70
1956;DHT22;978;48.314;11.562;2022-12-24T03:42:38;20.30;67.70
1956;DHT22;978;48.314;11.562;2022-12-24T03:45:06;20.30;67.70
1956;DHT22;978;48.314;11.562;2022-12-24T03:47:34;20.30;67.70
1956;DHT22;978;48.314;11.562;2022-12-24T03:50:06;20.30;67.70
1956;DHT22;978;48.314;11.562;2022-12-24T03:52:38;20.30;67.70
1956;DHT22;978;48.314;11.562;2022-12-24T03:55:06;20.30;67.70
1956;DHT22;978;48.314;11.562;2022-12-24T03:57:34;20.30;67.70
1956;DHT22;978;48.314;11.562;2022-12-24T04:00:01;20.30;67.70
1956;DHT22;978;48.314;11.562;2022-12-24T04:02:29;20.30;67.70
1956;DHT22;978;48.314;11.562;2022-12-24T04:04:56;20.30;67.70
1956;DHT22;978;48.314;11.562;2022-12-24T04:07:23;20.30;67.70
1956;DHT22;978;48.314;11.562;2022-12-24T04:09:51;20.30;67.60
1956;DHT22;978;48.314;11.562;2022-12-24T04:12:17;20.30;67.60
1956;DHT22;978;48.314;11.562;2022-12-24T04:14:44;20.30;67.60
1956;DHT22;978;48.314;11.562;2022-12-24T04:17:12;20.30;67.70
1956;DHT22;978;48.314;11.562;2022-12-24T04:19:39;20.30;67.60
1956;DHT22;978;48.314;11.562;2022-12-24T04:22:09;20.30;68.30
1956;DHT22;978;48.314;11.562;2022-12-24T04:24:38;20.30;67.60
1956;DHT22;978;48.314;11.562;2022-12-24T04:27:06;20.30;67.70
1956;DHT22;978;48.314;11.562;2022-12-24T04:29:33;20.40;67.60
1956;DHT22;978;48.314;11.562;2022-12-24T04:31:59;20.30;67.60
1956;DHT22;978;48.314;11.562;2022-12-24T04:34:27;20.30;67.70
1956;DHT22;978;48.314;11.562;2022-12-24T04:36:53;20.30;67.60
1956;DHT22;978;48.314;11.562;2022-12-24T04:39:20;20.30;67.60
1956;DHT22;978;48.314;11.562;2022-12-24T04:41:47;20.30;67.60
1956;DHT22;978;48.314;11.562;2022-12-24T04:44:15;20.30;67.60
1956;DHT22;978;48.314;11.562;2022-12-24T04:46:43;20.30;67.60
1956;DHT22;978;48.314;11.562;2022-12-24T04:49:10;20.30;67.60
1956;DHT22;978;48.314;11.562;2022-12-24T04:51:37;20.30;67.60
1956;DHT22;978;48.314;11.562;2022-12-24T04:54:06;20.30;67.60
1956;DHT22;978;48.314;11.562;2022-12-24T04:56:32;20.30;67.60
1956;DHT22;978;48.314;11.562;2022-12-24T04:59:00;20.30;68.20
1956;DHT22;978;48.314;11.562;2022-12-24T05:01:30;20.30;67.60
1956;DHT22;978;48.314;11.562;2022-12-24T05:03:57;20.30;67.60
1956;DHT22;978;48.314;11.562;2022-12-24T05:06:26;20.30;67.60
1956;DHT22;978;48.314;11.562;2022-12-24T05:08:53;20.30;67.60
1956;DHT22;978;48.314;11.562;2022-12-24T05:11:20;20.30;67.60
1956;DHT22;978;48.314;11.562;2022-12-24T05:13:47;20.30;67.60
1956;DHT22;978;48.314;11.562;2022-12-24T05:16:15;20.30;67.60
1956;DHT22;978;48.314;11.562;2022-12-24T05:18:49;20.30;67.60
1956;DHT22;978;48.314;11.562;2022-12-24T05:21:18;20.30;67.60
1956;DHT22;978;48.314;11.562;2022-12-24T05:23:46;20.30;67.60
1956;DHT22;978;48.314;11.562;2022-12-24T05:26:33;20.30;67.60
1956;DHT22;978;48.314;11.562;2022-12-24T05:29:00;20.30;67.60
1956;DHT22;978;48.314;11.562;2022-12-24T05:31:29;20.30;67.50
1956;DHT22;978;48.314;11.562;2022-12-24T05:33:58;20.30;67.60
1956;DHT22;978;48.314;11.562;2022-12-24T05:36:25;20.30;67.50
1956;DHT22;978;48.314;11.562;2022-12-24T05:38:51;20.30;67.60
1956;DHT22;978;48.314;11.562;2022-12-24T05:41:18;20.30;67.50
1956;DHT22;978;48.314;11.562;2022-12-24T05:43:47;20.30;67.50
1956;DHT22;978;48.314;11.562;2022-12-24T05:46:18;20.30;67.50
1956;DHT22;978;48.314;11.562;2022-12-24T05:48:46;20.30;67.50
1956;DHT22;978;48.314;11.562;2022-12-24T05:51:17;20.30;67.50
1956;DHT22;978;48.314;11.562;2022-12-24T05:53:46;20.30;67.50
1956;DHT22;978;48.314;11.562;2022-12-24T05:56:17;20.30;68.10
1956;DHT22;978;48.314;11.562;2022-12-24T05:58:46;20.30;67.50
1956;DHT22;978;48.314;11.562;2022-12-24T06:01:14;20.30;67.50
1956;DHT22;978;48.314;11.562;2022-12-24T06:03:42;20.30;67.50
1956;DHT22;978;48.314;11.562;2022-12-24T06:06:13;20.30;67.50
1956;DHT22;978;48.314;11.562;2022-12-24T06:08:47;20.30;67.50
1956;DHT22;978;48.314;11.562;2022-12-24T06:11:17;20.30;68.10
1956;DHT22;978;48.314;11.562;2022-12-24T06:13:44;20.30;67.40
1956;DHT22;978;48.314;11.562;2022-12-24T06:16:14;20.30;67.50
1956;DHT22;978;48.314;11.562;2022-12-24T06:18:43;20.30;67.50
1956;DHT22;978;48.314;11.562;2022-12-24T06:21:10;20.30;67.50
1956;DHT22;978;48.314;11.562;2022-12-24T06:23:39;20.30;67.40
1956;DHT22;978;48.314;11.562;2022-12-24T06:26:08;20.30;67.40
1956;DHT22;978;48.314;11.562;2022-12-24T06:28:37;20.30;67.40
1956;DHT22;978;48.314;11.562;2022-12-24T06:31:05;20.30;67.40
1956;DHT22;978;48.314;11.562;2022-12-24T06:33:33;20.30;67.40
1956;DHT22;978;48.314;11.562;2022-12-24T06:36:00;20.30;67.50
1956;DHT22;978;48.314;11.562;2022-12-24T06:38:28;20.30;68.10
1956;DHT22;978;48.314;11.562;2022-12-24T06:40:55;20.30;67.50
1956;DHT22;978;48.314;11.562;2022-12-24T06:43:23;20.30;67.40
1956;DHT22;978;48.314;11.562;2022-12-24T06:45:51;20.30;67.40
1956;DHT22;978;48.314;11.562;2022-12-24T06:48:19;20.30;67.40
1956;DHT22;978;48.314;11.562;2022-12-24T06:50:48;20.40;67.50
1956;DHT22;978;48.314;11.562;2022-12-24T06:53:18;20.30;67.40
1956;DHT22;978;48.314;11.562;2022-12-24T06:55:46;20.30;67.40
1956;DHT22;978;48.314;11.562;2022-12-24T06:58:15;20.30;67.50
1956;DHT22;978;48.314;11.562;2022-12-24T07:00:52;20.30;67.40
1956;DHT22;978;48.314;11.562;2022-12-24T07:03:20;20.30;67.40
1956;DHT22;978;48.314;11.562;2022-12-24T07:05:48;20.30;67.40
1956;DHT22;978;48.314;11.562;2022-12-24T07:08:16;20.30;67.40
1956;DHT22;978;48.314;11.562;2022-12-24T07:10:44;20.30;67.40
1956;DHT22;978;48.314;11.562;2022-12-24T07:13:11;20.30;67.40
1956;DHT22;978;48.314;11.562;2022-12-24T07:15:40;20.30;67.40
1956;DHT22;978;48.314;11.562;2022-12-24T07:18:08;20.30;67.40
1956;DHT22;978;48.314;11.562;2022-12-24T07:20:34;20.30;67.40
1956;DHT22;978;48.314;11.562;2022-12-24T07:23:01;20.30;67.40
1956;DHT22;978;48.314;11.562;2022-12-24T07:25:28;20.30;67.40
1956;DHT22;978;48.314;11.562;2022-12-24T07:27:55;20.30;67.40
1956;DHT22;978;48.314;11.562;2022-12-24T07:30:23;20.40;67.40
1956;DHT22;978;48.314;11.562;2022-12-24T07:32:51;20.30;67.40
1956;DHT22;978;48.314;11.562;2022-12-24T07:35:19;20.30;67.40
1956;DHT22;978;48.314;11.562;2022-12-24T07:37:47;20.30;67.30
1956;DHT22;978;48.314;11.562;2022-12-24T07:40:17;20.30;67.30
1956;DHT22;978;48.314;11.562;2022-12-24T07:42:46;20.30;67.30
1956;DHT22;978;48.314;11.562;2022-12-24T07:45:14;20.30;67.30
1956;DHT22;978;48.314;11.562;2022-12-24T07:47:41;20.30;67.30
1956;DHT22;978;48.314;11.562;2022-12-24T07:50:08;20.30;67.30
1956;DHT22;978;48.314;11.562;2022-12-24T07:52:36;20.30;67.30
1956;DHT22;978;48.314;11.562;2022-12-24T07:55:03;20.30;67.30
1956;DHT22;978;48.314;11.562;2022-12-24T07:57:30;20.40;67.30
1956;DHT22;978;48.314;11.562;2022-12-24T07:59:57;20.30;67.30
1956;DHT22;978;48.314;11.562;2022-12-24T08:02:25;20.30;67.40
1956;DHT22;978;48.314;11.562;2022-12-24T08:04:53;20.30;67.40
1956;DHT22;978;48.314;11.562;2022-12-24T08:07:20;20.30;67.50
1956;DHT22;978;48.314;11.562;2022-12-24T08:09:52;20.30;67.60
1956;DHT22;978;48.314;11.562;2022-12-24T08:12:19;20.30;67.50
1956;DHT22;978;48.314;11.562;2022-12-24T08:14:47;20.30;67.60
1956;DHT22;978;48.314;11.562;2022-12-24T08:17:18;20.30;67.60
1956;DHT22;978;48.314;11.562;2022-12-24T08:19:48;20.30;67.60
1956;DHT22;978;48.314;11.562;2022-12-24T08:22:15;20.30;67.60
1956;DHT22;978;48.314;11.562;2022-12-24T08:24:42;20.30;67.50
1956;DHT22;978;48.314;11.562;2022-12-24T08:27:10;20.30;67.50
1956;DHT22;978;48.314;11.562;2022-12-24T08:29:37;20.30;67.50
1956;DHT22;978;48.314;11.562;2022-12-24T08:32:04;20.30;67.40
1956;DHT22;978;48.314;11.562;2022-12-24T08:34:30;20.30;67.40
1956;DHT22;978;48.314;11.562;2022-12-24T08:36:57;20.30;67.40
1956;DHT22;978;48.314;11.562;2022-12-24T08:39:25;20.30;67.40
1956;DHT22;978;48.314;11.562;2022-12-24T08:41:53;20.30;67.30
1956;DHT22;978;48.314;11.562;2022-12-24T08:44:25;20.30;67.30
1956;DHT22;978;48.314;11.562;2022-12-24T08:46:54;20.30;67.30
1956;DHT22;978;48.314;11.562;2022-12-24T08:49:25;20.30;67.30
1956;DHT22;978;48.314;11.562;2022-12-24T08:51:53;20.30;67.30
1956;DHT22;978;48.314;11.562;2022-12-24T08:54:20;20.30;67.30
1956;DHT22;978;48.314;11.562;2022-12-24T08:56:49;20.30;67.30
1956;DHT22;978;48.314;11.562;2022-12-24T08:59:16;20.30;67.20
1956;DHT22;978;48.314;11.562;2022-12-24T09:01:46;20.30;67.20
1956;DHT22;978;48.314;11.562;2022-12-24T09:04:15;20.30;67.20
1956;DHT22;978;48.314;11.562;2022-12-24T09:06:42;20.30;67.20
1956;DHT22;978;48.314;11.562;2022-12-24T09:09:08;20.30;67.20
1956;DHT22;978;48.314;11.562;2022-12-24T09:11:35;20.30;67.20
1956;DHT22;978;48.314;11.562;2022-12-24T09:14:02;20.30;67.10
1956;DHT22;978;48.314;11.562;2022-12-24T09:16:29;20.30;67.10
1956;DHT22;978;48.314;11.562;2022-12-24T09:18:59;20.30;67.10
1956;DHT22;978;48.314;11.562;2022-12-24T09:21:27;20.30;67.20
1956;DHT22;978;48.314;11.562;2022-12-24T09:23:55;20.30;67.20
1956;DHT22;978;48.314;11.562;2022-12-24T09:26:24;20.30;67.20
1956;DHT22;978;48.314;11.562;2022-12-24T09:28:52;20.30;67.20
1956;DHT22;978;48.314;11.562;2022-12-24T09:31:19;20.30;67.20
1956;DHT22;978;48.314;11.562;2022-12-24T09:33:48;20.30;67.20
1956;DHT22;978;48.314;11.562;2022-12-24T09:36:20;20.30;67.10
1956;DHT22;978;48.314;11.562;2022-12-24T09:38:55;20.30;67.10
1956;DHT22;978;48.314;11.562;2022-12-24T09:41:35;20.30;67.10
1956;DHT22;978;48.314;11.562;2022-12-24T09:44:13;20.30;67.20
1956;DHT22;978;48.314;11.562;2022-12-24T09:46:44;20.30;67.10
1956;DHT22;978;48.314;11.562;2022-12-24T09:49:18;20.30;67.10
1956;DHT22;978;48.314;11.562;2022-12-24T09:51:50;20.30;67.10
1956;DHT22;978;48.314;11.562;2022-12-24T09:54:20;20.30;67.10
1956;DHT22;978;48.314;11.562;2022-12-24T09:56:53;20.30;67.20
1956;DHT22;978;48.314;11.562;2022-12-24T09:59:25;20.20;67.20
1956;DHT22;978;48.314;11.562;2022-12-24T10:01:54;20.30;67.30
1956;DHT22;978;48.314;11.562;2022-12-24T10:04:25;20.30;67.30
1956;DHT22;978;48.314;11.562;2022-12-24T10:07:03;20.20;67.30
1956;DHT22;978;48.314;11.562;2022-12-24T10:09:38;20.30;67.30
1956;DHT22;978;48.314;11.562;2022-12-24T10:12:10;20.20;67.30
1956;DHT22;978;48.314;11.562;2022-12-24T10:14:54;20.30;67.30
1956;DHT22;978;48.314;11.562;2022-12-24T10:17:40;20.30;67.30
1956;DHT22;978;48.314;11.562;2022-12-24T10:20:32;20.30;67.30
1956;DHT22;978;48.314;11.562;2022-12-24T10:23:06;20.30;67.20
1956;DHT22;978;48.314;11.562;2022-12-24T10:25:43;20.30;67.20
1956;DHT22;978;48.314;11.562;2022-12-24T10:28:15;20.30;67.20
1956;DHT22;978;48.314;11.562;2022-12-24T10:30:44;20.30;67.20
1956;DHT22;978;48.314;11.562;2022-12-24T10:33:17;20.40;67.30
1956;DHT22;978;48.314;11.562;2022-12-24T10:35:47;20.30;67.10
1956;DHT22;978;48.314;11.562;2022-12-24T10:38:17;20.30;67.20
1956;DHT22;978;48.314;11.562;2022-12-24T10:40:46;20.30;67.20
1956;DHT22;978;48.314;11.562;2022-12-24T10:43:15;20.30;67.20
1956;DHT22;978;48.314;11.562;2022-12-24T10:45:45;20.30;67.20
1956;DHT22;978;48.314;11.562;2022-12-24T10:48:19;20.30;67.20
1956;DHT22;978;48.314;11.562;2022-12-24T10:50:54;20.30;67.20
1956;DHT22;978;48.314;11.562;2022-12-24T10:53:37;20.30;67.30
1956;DHT22;978;48.314;11.562;2022-12-24T10:56:05;20.30;67.30
1956;DHT22;978;48.314;11.562;2022-12-24T10:58:35;20.30;67.30
1956;DHT22;978;48.314;11.562;2022-12-24T11:01:03;20.30;67.30
1956;DHT22;978;48.314;11.562;2022-12-24T11:03:32;20.30;67.30
1956;DHT22;978;48.314;11.562;2022-12-24T11:06:04;20.30;67.30
1956;DHT22;978;48.314;11.562;2022-12-24T11:08:34;20.30;67.40
1956;DHT22;978;48.314;11.562;2022-12-24T11:11:05;20.30;67.40
1956;DHT22;978;48.314;11.562;2022-12-24T11:13:36;20.30;67.40
1956;DHT22;978;48.314;11.562;2022-12-24T11:16:07;20.30;67.40
1956;DHT22;978;48.314;11.562;2022-12-24T11:18:37;20.30;67.40
1956;DHT22;978;48.314;11.562;2022-12-24T11:21:09;20.30;67.30
1956;DHT22;978;48.314;11.562;2022-12-24T11:23:37;20.30;67.30
1956;DHT22;978;48.314;11.562;2022-12-24T11:26:04;20.30;67.20
1956;DHT22;978;48.314;11.562;2022-12-24T11:28:32;20.30;67.20
1956;DHT22;978;48.314;11.562;2022-12-24T11:31:03;20.30;67.20
1956;DHT22;978;48.314;11.562;2022-12-24T11:33:45;20.30;67.10
1956;DHT22;978;48.314;11.562;2022-12-24T11:36:12;20.30;67.00
1956;DHT22;978;48.314;11.562;2022-12-24T11:38:40;20.30;67.00
1956;DHT22;978;48.314;11.562;2022-12-24T11:41:09;20.30;66.90
1956;DHT22;978;48.314;11.562;2022-12-24T11:43:42;20.30;66.90
1956;DHT22;978;48.314;11.562;2022-12-24T11:46:18;20.30;66.90
1956;DHT22;978;48.314;11.562;2022-12-24T11:48:46;20.30;66.90
1956;DHT22;978;48.314;11.562;2022-12-24T11:51:22;20.30;66.80
1956;DHT22;978;48.314;11.562;2022-12-24T11:53:55;20.30;66.80
1956;DHT22;978;48.314;11.562;2022-12-24T11:56:32;20.30;66.80
1956;DHT22;978;48.314;11.562;2022-12-24T11:59:06;20.30;66.80
1956;DHT22;978;48.314;11.562;2022-12-24T12:01:39;20.30;66.70
1956;DHT22;978;48.314;11.562;2022-12-24T12:04:12;20.30;66.70
1956;DHT22;978;48.314;11.562;2022-12-24T12:06:44;20.30;66.70
1956;DHT22;978;48.314;11.562;2022-12-24T12:09:19;20.30;66.70
1956;DHT22;978;48.314;11.562;2022-12-24T12:11:51;20.30;67.30
1956;DHT22;978;48.314;11.562;2022-12-24T12:14:21;20.30;66.60
1956;DHT22;978;48.314;11.562;2022-12-24T12:16:55;20.30;66.60
1956;DHT22;978;48.314;11.562;2022-12-24T12:19:39;20.30;66.60
1956;DHT22;978;48.314;11.562;2022-12-24T12:22:15;20.30;66.60
1956;DHT22;978;48.314;11.562;2022-12-24T12:24:49;20.30;66.50
1956;DHT22;978;48.314;11.562;2022-12-24T12:27:20;20.40;66.60
1956;DHT22;978;48.314;11.562;2022-12-24T12:29:55;20.30;66.50
1956;DHT22;978;48.314;11.562;2022-12-24T12:32:27;20.30;66.50
1956;DHT22;978;48.314;11.562;2022-12-24T12:35:03;20.30;66.50
1956;DHT22;978;48.314;11.562;2022-12-24T12:37:35;20.30;66.50
1956;DHT22;978;48.314;11.562;2022-12-24T12:40:12;20.30;66.50
1956;DHT22;978;48.314;11.562;2022-12-24T12:42:39;20.30;66.50
1956;DHT22;978;48.314;11.562;2022-12-24T12:45:21;20.30;66.50
1956;DHT22;978;48.314;11.562;2022-12-24T12:50:47;20.40;66.50
1956;DHT22;978;48.314;11.562;2022-12-24T12:53:33;20.30;66.50
1956;DHT22;978;48.314;11.562;2022-12-24T12:56:22;20.30;66.40
1956;DHT22;978;48.314;11.562;2022-12-24T12:58:54;20.30;66.50
1956;DHT22;978;48.314;11.562;2022-12-24T13:01:26;20.30;66.40
1956;DHT22;978;48.314;11.562;2022-12-24T13:04:25;20.30;66.40
1956;DHT22;978;48.314;11.562;2022-12-24T13:07:26;20.30;66.40
1956;DHT22;978;48.314;11.562;2022-12-24T13:10:17;20.30;66.40
1956;DHT22;978;48.314;11.562;2022-12-24T13:12:58;20.30;66.30
1956;DHT22;978;48.314;11.562;2022-12-24T13:15:48;20.30;66.30
1956;DHT22;978;48.314;11.562;2022-12-24T13:18:28;20.30;66.30
1956;DHT22;978;48.314;11.562;2022-12-24T13:20:57;20.30;66.30
1956;DHT22;978;48.314;11.562;2022-12-24T13:23:25;20.30;66.30
1956;DHT22;978;48.314;11.562;2022-12-24T13:25:53;20.30;66.30
1956;DHT22;978;48.314;11.562;2022-12-24T13:28:33;20.30;66.30
1956;DHT22;978;48.314;11.562;2022-12-24T13:31:26;20.30;66.30
1956;DHT22;978;48.314;11.562;2022-12-24T13:34:01;20.30;66.30
1956;DHT22;978;48.314;11.562;2022-12-24T13:36:59;20.30;66.30
1956;DHT22;978;48.314;11.562;2022-12-24T13:39:26;20.30;66.30
1956;DHT22;978;48.314;11.562;2022-12-24T13:41:53;20.30;66.30
1956;DHT22;978;48.314;11.562;2022-12-24T13:44:26;20.30;66.30
1956;DHT22;978;48.314;11.562;2022-12-24T13:47:00;20.30;66.30
1956;DHT22;978;48.314;11.562;2022-12-24T13:49:33;20.30;66.30
1956;DHT22;978;48.314;11.562;2022-12-24T13:52:30;20.30;66.90
1956;DHT22;978;48.314;11.562;2022-12-24T13:55:11;20.30;66.30
1956;DHT22;978;48.314;11.562;2022-12-24T13:57:44;20.30;66.30
1956;DHT22;978;48.314;11.562;2022-12-24T14:00:41;20.30;66.40
1956;DHT22;978;48.314;11.562;2022-12-24T14:03:21;20.30;66.30
1956;DHT22;978;48.314;11.562;2022-12-24T14:05:51;20.30;66.30
1956;DHT22;978;48.314;11.562;2022-12-24T14:08:31;20.30;66.30
1956;DHT22;978;48.314;11.562;2022-12-24T14:11:04;20.30;66.30
1956;DHT22;978;48.314;11.562;2022-12-24T14:13:54;20.30;66.30
1956;DHT22;978;48.314;11.562;2022-12-24T14:16:49;20.30;66.30
1956;DHT22;978;48.314;11.562;2022-12-24T14:19:19;20.30;66.30
1956;DHT22;978;48.314;11.562;2022-12-24T14:21:54;20.40;66.30
1956;DHT22;978;48.314;11.562;2022-12-24T14:24:24;20.30;66.20
1956;DHT22;978;48.314;11.562;2022-12-24T14:26:55;20.30;66.20
1956;DHT22;978;48.314;11.562;2022-12-24T14:29:26;20.30;66.20
1956;DHT22;978;48.314;11.562;2022-12-24T14:31:57;20.30;66.20
1956;DHT22;978;48.314;11.562;2022-12-24T14:34:25;20.30;66.20
1956;DHT22;978;48.314;11.562;2022-12-24T14:36:54;20.30;66.20
1956;DHT22;978;48.314;11.562;2022-12-24T14:39:28;20.30;66.20
1956;DHT22;978;48.314;11.562;2022-12-24T14:42:03;20.30;66.20
1956;DHT22;978;48.314;11.562;2022-12-24T14:44:40;20.30;66.20
1956;DHT22;978;48.314;11.562;2022-12-24T14:47:26;20.30;66.10
1956;DHT22;978;48.314;11.562;2022-12-24T14:50:21;20.30;66.20
1956;DHT22;978;48.314;11.562;2022-12-24T14:52:56;20.30;66.10
1956;DHT22;978;48.314;11.562;2022-12-24T14:55:33;20.30;66.10
1956;DHT22;978;48.314;11.562;2022-12-24T14:58:23;20.30;66.10
1956;DHT22;978;48.314;11.562;2022-12-24T15:00:52;20.30;66.10
1956;DHT22;978;48.314;11.562;2022-12-24T15:03:22;20.30;66.10
1956;DHT22;978;48.314;11.562;2022-12-24T15:05:51;20.30;66.10
1956;DHT22;978;48.314;11.562;2022-12-24T15:08:25;20.30;66.10
1956;DHT22;978;48.314;11.562;2022-12-24T15:10:54;20.30;66.10
1956;DHT22;978;48.314;11.562;2022-12-24T15:13:27;20.30;66.10
1956;DHT22;978;48.314;11.562;2022-12-24T15:15:56;20.30;66.00
1956;DHT22;978;48.314;11.562;2022-12-24T15:18:25;20.30;66.00
1956;DHT22;978;48.314;11.562;2022-12-24T15:20:56;20.30;66.00
1956;DHT22;978;48.314;11.562;2022-12-24T15:23:27;20.30;66.00
1956;DHT22;978;48.314;11.562;2022-12-24T15:26:06;20.30;66.10
1956;DHT22;978;48.314;11.562;2022-12-24T15:28:35;20.30;66.00
1956;DHT22;978;48.314;11.562;2022-12-24T15:31:11;20.30;66.00
1956;DHT22;978;48.314;11.562;2022-12-24T15:33:41;20.30;66.00
1956;DHT22;978;48.314;11.562;2022-12-24T15:36:09;20.30;66.00
1956;DHT22;978;48.314;11.562;2022-12-24T15:38:40;20.30;66.00
1956;DHT22;978;48.314;11.562;2022-12-24T15:41:21;20.30;66.00
1956;DHT22;978;48.314;11.562;2022-12-24T15:43:51;20.30;66.00
1956;DHT22;978;48.314;11.562;2022-12-24T15:46:22;20.30;66.00
1956;DHT22;978;48.314;11.562;2022-12-24T15:48:53;20.30;66.00
1956;DHT22;978;48.314;11.562;2022-12-24T15:51:23;20.30;66.00
1956;DHT22;978;48.314;11.562;2022-12-24T15:53:56;20.30;66.00
1956;DHT22;978;48.314;11.562;2022-12-24T15:56:33;20.30;65.90
1956;DHT22;978;48.314;11.562;2022-12-24T15:59:29;20.30;66.00
1956;DHT22;978;48.314;11.562;2022-12-24T16:02:26;20.30;65.90
1956;DHT22;978;48.314;11.562;2022-12-24T16:08:04;20.30;65.90
1956;DHT22;978;48.314;11.562;2022-12-24T16:10:36;20.30;66.50
1956;DHT22;978;48.314;11.562;2022-12-24T16:13:11;20.30;65.90
1956;DHT22;978;48.314;11.562;2022-12-24T16:15:44;20.30;65.90
1956;DHT22;978;48.314;11.562;2022-12-24T16:18:16;20.30;65.90
1956;DHT22;978;48.314;11.562;2022-12-24T16:20:48;20.30;65.90
1956;DHT22;978;48.314;11.562;2022-12-24T16:23:24;20.30;65.90
1956;DHT22;978;48.314;11.562;2022-12-24T16:25:53;20.30;65.90
1956;DHT22;978;48.314;11.562;2022-12-24T16:28:21;20.30;65.90
1956;DHT22;978;48.314;11.562;2022-12-24T16:30:49;20.30;65.90
1956;DHT22;978;48.314;11.562;2022-12-24T16:33:21;20.30;65.80
1956;DHT22;978;48.314;11.562;2022-12-24T16:35:50;20.30;65.90